Time;durP1;ratioP1;P1;durP2;ratioP2;P2;SDS_P1;SDS_P2;PMS_P1;PMS_P2;Temp;Humidity;BMP_temperature;BMP_pressure;BME280_temperature;BME280_humidity;BME280_pressure;Samples;Min_cycle;Max_cycle;Signal;HPM_P1;HPM_P2
2023/07/29 00:00:48;;;;;;;;;;;19.60;99.90;;;;;;2076559;28;19944;-81
2023/07/29 00:01:49;;;;;;;;;;;19.60;99.90;;;;;;2076462;28;19940;-78
2023/07/29 00:02:50;;;;;;;;;;;19.60;99.90;;;;;;2075713;28;20419;-79
2023/07/29 00:03:50;;;;;;;;;;;19.60;99.90;;;;;;2077643;28;20000;-79
2023/07/29 00:04:51;;;;;;;;;;;19.60;99.90;;;;;;2076419;28;20337;-78
2023/07/29 00:05:51;;;;;;;;;;;19.60;99.90;;;;;;2075666;28;19921;-77
2023/07/29 00:06:52;;;;;;;;;;;19.60;99.90;;;;;;2075808;28;19917;-78
2023/07/29 00:07:52;;;;;;;;;;;19.50;99.90;;;;;;2077534;28;19914;-77
2023/07/29 00:08:53;;;;;;;;;;;19.50;99.90;;;;;;2075643;28;20435;-77
2023/07/29 00:09:53;;;;;;;;;;;19.50;99.90;;;;;;2067617;28;19929;-78
2023/07/29 00:10:54;;;;;;;;;;;19.50;99.90;;;;;;2075699;28;19913;-77
2023/07/29 00:11:54;;;;;;;;;;;19.50;99.90;;;;;;2073889;28;20044;-78
2023/07/29 00:12:55;;;;;;;;;;;19.50;99.90;;;;;;2073874;28;19914;-78
2023/07/29 00:13:55;;;;;;;;;;;19.50;99.90;;;;;;2076025;28;19928;-77
2023/07/29 00:14:56;;;;;;;;;;;19.50;99.90;;;;;;2076281;28;19970;-78
2023/07/29 00:15:56;;;;;;;;;;;19.50;99.90;;;;;;2076365;28;20336;-77
2023/07/29 00:16:57;;;;;;;;;;;19.50;99.90;;;;;;2078536;28;20087;-77
2023/07/29 00:17:57;;;;;;;;;;;19.50;99.90;;;;;;2076484;28;20423;-77
2023/07/29 00:18:58;;;;;;;;;;;19.50;99.90;;;;;;2076627;28;20252;-77
2023/07/29 00:19:58;;;;;;;;;;;19.40;99.90;;;;;;2076008;28;20004;-77
2023/07/29 00:20:59;;;;;;;;;;;19.40;99.90;;;;;;2067518;28;19921;-79
2023/07/29 00:21:59;;;;;;;;;;;19.40;99.90;;;;;;2067617;28;19921;-78
2023/07/29 00:23:01;;;;;;;;;;;19.40;99.90;;;;;;2077824;28;19913;-78
2023/07/29 00:24:02;;;;;;;;;;;19.40;99.90;;;;;;2074238;28;19972;-78
2023/07/29 00:25:02;;;;;;;;;;;19.40;99.90;;;;;;2076123;28;19924;-78
2023/07/29 00:26:03;;;;;;;;;;;19.40;99.90;;;;;;2076614;28;20159;-77
2023/07/29 00:27:03;;;;;;;;;;;19.50;99.90;;;;;;2078538;28;20055;-78
2023/07/29 00:28:04;;;;;;;;;;;19.50;99.90;;;;;;2075277;28;20006;-77
2023/07/29 00:29:05;;;;;;;;;;;19.50;99.90;;;;;;2074631;28;20304;-80
2023/07/29 00:30:05;;;;;;;;;;;19.60;99.90;;;;;;2072540;28;20083;-78
2023/07/29 00:31:06;;;;;;;;;;;19.50;99.90;;;;;;2077142;28;20290;-78
2023/07/29 00:32:08;;;;;;;;;;;19.60;99.90;;;;;;2076142;28;20410;-79
2023/07/29 00:33:09;;;;;;;;;;;19.60;99.90;;;;;;2075077;28;19956;-79
2023/07/29 00:34:09;;;;;;;;;;;19.60;99.90;;;;;;2073220;28;19917;-78
2023/07/29 00:35:10;;;;;;;;;;;19.60;99.90;;;;;;2077844;28;20187;-79
2023/07/29 00:36:11;;;;;;;;;;;19.70;99.90;;;;;;2073638;28;20455;-79
2023/07/29 00:37:12;;;;;;;;;;;19.70;99.90;;;;;;2075486;28;19917;-79
2023/07/29 00:38:12;;;;;;;;;;;19.70;99.90;;;;;;2066224;28;19917;-80
2023/07/29 00:39:13;;;;;;;;;;;19.70;99.90;;;;;;2075975;28;20251;-79
2023/07/29 00:40:21;;;;;;;;;;;19.70;99.90;;;;;;2076192;28;19917;-78
2023/07/29 00:41:22;;;;;;;;;;;19.70;99.90;;;;;;2074953;28;20232;-78
2023/07/29 00:42:23;;;;;;;;;;;19.70;99.90;;;;;;2073675;28;20022;-78
2023/07/29 00:43:23;;;;;;;;;;;19.70;99.90;;;;;;2073961;28;20334;-78
2023/07/29 00:44:24;;;;;;;;;;;19.70;99.90;;;;;;2074835;28;19913;-79
2023/07/29 00:45:25;;;;;;;;;;;19.70;99.90;;;;;;2075276;28;20368;-78
2023/07/29 00:46:27;;;;;;;;;;;19.70;99.90;;;;;;2074873;28;19951;-78
2023/07/29 00:47:28;;;;;;;;;;;19.70;99.90;;;;;;2067149;28;20024;-79
2023/07/29 00:48:28;;;;;;;;;;;19.60;99.90;;;;;;2065627;28;19924;-80
2023/07/29 00:49:30;;;;;;;;;;;19.60;99.90;;;;;;2073112;28;19917;-79
2023/07/29 00:50:30;;;;;;;;;;;19.60;99.90;;;;;;2076393;28;20724;-77
2023/07/29 00:51:34;;;;;;;;;;;19.60;99.90;;;;;;2078233;28;20019;-78
2023/07/29 00:52:34;;;;;;;;;;;19.60;99.90;;;;;;2076294;28;19917;-78
2023/07/29 00:53:35;;;;;;;;;;;19.60;99.90;;;;;;2076047;28;20037;-78
2023/07/29 00:54:35;;;;;;;;;;;19.60;99.90;;;;;;2076044;28;20225;-78
2023/07/29 00:55:37;;;;;;;;;;;19.60;99.90;;;;;;2078135;28;19920;-79
2023/07/29 00:56:38;;;;;;;;;;;19.60;99.90;;;;;;2076239;28;20287;-79
2023/07/29 00:57:40;;;;;;;;;;;19.60;99.90;;;;;;2075137;28;19917;-78
2023/07/29 00:58:40;;;;;;;;;;;19.60;99.90;;;;;;2067154;28;20400;-79
2023/07/29 00:59:41;;;;;;;;;;;19.50;99.90;;;;;;2077381;28;19917;-78
2023/07/29 01:00:42;;;;;;;;;;;19.50;99.90;;;;;;2075362;28;19929;-78
2023/07/29 01:01:42;;;;;;;;;;;19.50;99.90;;;;;;2067212;28;20009;-78
2023/07/29 01:02:43;;;;;;;;;;;19.50;99.90;;;;;;2072789;28;20427;-78
2023/07/29 01:03:45;;;;;;;;;;;19.50;99.90;;;;;;2075957;28;19917;-78
2023/07/29 01:04:45;;;;;;;;;;;19.50;99.90;;;;;;2075393;28;19996;-77
2023/07/29 01:05:54;;;;;;;;;;;19.50;99.90;;;;;;2075439;28;20411;-79
2023/07/29 01:06:54;;;;;;;;;;;19.50;99.90;;;;;;2075498;28;19917;-78
2023/07/29 01:08:02;;;;;;;;;;;19.50;99.90;;;;;;2075855;28;19927;-78
2023/07/29 01:09:05;;;;;;;;;;;19.40;99.90;;;;;;2080097;28;20012;-78
2023/07/29 01:10:10;;;;;;;;;;;19.40;99.90;;;;;;2074949;28;19917;-79
2023/07/29 01:11:25;;;;;;;;;;;19.40;99.90;;;;;;2067745;28;19996;-77
2023/07/29 01:12:28;;;;;;;;;;;19.40;99.90;;;;;;2068748;28;19933;-78
2023/07/29 01:13:35;;;;;;;;;;;19.40;99.90;;;;;;2075326;28;19920;-75
2023/07/29 01:14:41;;;;;;;;;;;19.40;99.90;;;;;;2076090;28;19991;-77
2023/07/29 01:15:44;;;;;;;;;;;19.40;99.90;;;;;;2076052;28;20308;-77
2023/07/29 01:16:52;;;;;;;;;;;19.40;99.90;;;;;;2076016;28;19928;-77
2023/07/29 01:17:54;;;;;;;;;;;19.50;99.90;;;;;;2071407;28;19964;-77
2023/07/29 01:18:55;;;;;;;;;;;19.50;99.90;;;;;;2077808;28;19936;-77
2023/07/29 01:19:56;;;;;;;;;;;19.50;99.90;;;;;;2075937;28;19921;-77
2023/07/29 01:21:03;;;;;;;;;;;19.50;99.90;;;;;;2080771;28;19917;-77
2023/07/29 01:22:04;;;;;;;;;;;19.50;99.90;;;;;;2075493;28;19921;-77
2023/07/29 01:23:05;;;;;;;;;;;19.40;99.90;;;;;;2076440;28;20299;-77
2023/07/29 01:24:05;;;;;;;;;;;19.40;99.90;;;;;;2077026;28;19920;-77
2023/07/29 01:25:06;;;;;;;;;;;19.40;99.90;;;;;;2083544;28;19920;-77
2023/07/29 01:26:07;;;;;;;;;;;19.30;99.90;;;;;;2070997;28;19973;-77
2023/07/29 01:27:07;;;;;;;;;;;19.40;99.90;;;;;;2075233;28;19925;-77
2023/07/29 01:28:08;;;;;;;;;;;19.40;99.90;;;;;;2075739;28;19917;-77
2023/07/29 01:29:09;;;;;;;;;;;19.30;99.90;;;;;;2077003;28;19917;-78
2023/07/29 01:30:10;;;;;;;;;;;19.30;99.90;;;;;;2074959;28;19917;-78
2023/07/29 01:31:19;;;;;;;;;;;19.30;99.90;;;;;;2075126;28;20473;-77
2023/07/29 01:32:35;;;;;;;;;;;19.20;99.90;;;;;;2075321;28;19944;-77
2023/07/29 01:33:40;;;;;;;;;;;19.20;99.90;;;;;;2075927;28;19917;-78
2023/07/29 01:34:59;;;;;;;;;;;19.20;99.90;;;;;;2075027;28;19928;-78
2023/07/29 01:36:05;;;;;;;;;;;19.20;99.90;;;;;;2075281;28;19979;-77
2023/07/29 01:37:07;;;;;;;;;;;19.10;99.90;;;;;;2075153;28;19914;-78
2023/07/29 01:38:18;;;;;;;;;;;19.10;99.90;;;;;;2069780;28;19923;-78
2023/07/29 01:39:21;;;;;;;;;;;19.10;99.90;;;;;;2075235;28;19921;-78
2023/07/29 01:40:25;;;;;;;;;;;19.10;99.90;;;;;;2074833;28;19921;-77
2023/07/29 01:41:26;;;;;;;;;;;19.10;99.90;;;;;;2066572;28;20450;-78
2023/07/29 01:42:28;;;;;;;;;;;19.00;99.90;;;;;;2075183;28;19995;-76
2023/07/29 01:43:29;;;;;;;;;;;19.00;99.90;;;;;;2077106;28;19985;-77
2023/07/29 01:44:30;;;;;;;;;;;19.00;99.90;;;;;;2066766;28;20436;-78
2023/07/29 01:45:35;;;;;;;;;;;19.00;99.90;;;;;;2075155;28;19963;-78
2023/07/29 01:46:36;;;;;;;;;;;19.00;99.90;;;;;;2066927;28;20431;-78
2023/07/29 01:47:40;;;;;;;;;;;18.90;99.90;;;;;;2067211;28;20185;-78
2023/07/29 01:48:40;;;;;;;;;;;18.90;99.90;;;;;;2075486;28;19963;-78
2023/07/29 01:49:41;;;;;;;;;;;18.90;99.90;;;;;;2075806;28;20359;-78
2023/07/29 01:50:41;;;;;;;;;;;18.90;99.90;;;;;;2077760;28;19917;-79
2023/07/29 01:51:43;;;;;;;;;;;18.90;99.90;;;;;;2086539;28;19920;-78
2023/07/29 01:52:44;;;;;;;;;;;18.90;99.90;;;;;;2081821;28;19921;-78
2023/07/29 01:53:44;;;;;;;;;;;18.80;99.90;;;;;;2075646;28;20416;-77
2023/07/29 01:54:45;;;;;;;;;;;18.80;99.90;;;;;;2077623;28;19986;-78
2023/07/29 01:55:45;;;;;;;;;;;18.80;99.90;;;;;;2074810;28;19913;-79
2023/07/29 01:56:46;;;;;;;;;;;18.80;99.90;;;;;;2067116;28;19961;-78
2023/07/29 01:57:46;;;;;;;;;;;18.80;99.90;;;;;;2065627;28;19940;-78
2023/07/29 01:58:48;;;;;;;;;;;18.80;99.90;;;;;;2064230;28;19917;-78
2023/07/29 01:59:48;;;;;;;;;;;18.80;99.90;;;;;;2068635;28;19953;-78
2023/07/29 02:00:49;;;;;;;;;;;18.80;99.90;;;;;;2075071;28;19921;-78
2023/07/29 02:01:49;;;;;;;;;;;18.80;99.90;;;;;;2075280;28;20408;-78
2023/07/29 02:02:50;;;;;;;;;;;18.80;99.90;;;;;;2075177;28;20391;-77
2023/07/29 02:03:54;;;;;;;;;;;18.70;99.90;;;;;;2077262;28;20372;-77
2023/07/29 02:04:55;;;;;;;;;;;18.70;99.90;;;;;;2075959;28;19917;-77
2023/07/29 02:05:56;;;;;;;;;;;18.70;99.90;;;;;;2075239;28;20300;-78
2023/07/29 02:06:56;;;;;;;;;;;18.70;99.90;;;;;;2067139;28;20326;-78
2023/07/29 02:07:57;;;;;;;;;;;18.70;99.90;;;;;;2066950;28;20204;-78
2023/07/29 02:08:58;;;;;;;;;;;18.70;99.90;;;;;;2076835;28;20029;-78
2023/07/29 02:09:58;;;;;;;;;;;18.70;99.90;;;;;;2074671;28;20399;-78
2023/07/29 02:10:59;;;;;;;;;;;18.70;99.90;;;;;;2075340;28;20232;-78
2023/07/29 02:12:00;;;;;;;;;;;18.70;99.90;;;;;;2065678;28;20122;-78
2023/07/29 02:13:00;;;;;;;;;;;18.70;99.90;;;;;;2060221;28;20388;-78
2023/07/29 02:14:01;;;;;;;;;;;18.70;99.90;;;;;;2065787;28;19952;-78
2023/07/29 02:15:02;;;;;;;;;;;18.70;99.90;;;;;;2054777;28;20290;-79
2023/07/29 02:16:02;;;;;;;;;;;18.70;99.90;;;;;;2067167;28;19914;-79
2023/07/29 02:17:03;;;;;;;;;;;18.70;99.90;;;;;;2067158;28;20412;-79
2023/07/29 02:18:03;;;;;;;;;;;18.70;99.90;;;;;;2067021;28;20016;-78
2023/07/29 02:19:04;;;;;;;;;;;18.70;99.90;;;;;;2077078;28;20000;-79
2023/07/29 02:20:05;;;;;;;;;;;18.70;99.90;;;;;;2085529;28;20027;-78
2023/07/29 02:21:06;;;;;;;;;;;18.60;99.90;;;;;;2076927;28;19917;-77
2023/07/29 02:22:06;;;;;;;;;;;18.60;99.90;;;;;;2067018;28;20000;-77
2023/07/29 02:23:07;;;;;;;;;;;18.70;99.90;;;;;;2068739;28;19996;-79
2023/07/29 02:24:07;;;;;;;;;;;18.70;99.90;;;;;;2075131;28;19964;-80
2023/07/29 02:25:09;;;;;;;;;;;18.70;99.90;;;;;;2075846;28;20448;-78
2023/07/29 02:26:10;;;;;;;;;;;18.70;99.90;;;;;;2075045;28;20499;-79
2023/07/29 02:27:11;;;;;;;;;;;18.70;99.90;;;;;;2076862;28;19912;-78
2023/07/29 02:28:11;;;;;;;;;;;18.70;99.90;;;;;;2074875;28;19917;-79
2023/07/29 02:29:12;;;;;;;;;;;18.70;99.90;;;;;;2067075;28;20490;-78
2023/07/29 02:30:12;;;;;;;;;;;18.70;99.90;;;;;;2077734;28;20386;-78
2023/07/29 02:31:17;;;;;;;;;;;18.70;99.90;;;;;;2067176;28;19921;-78
2023/07/29 02:32:18;;;;;;;;;;;18.70;99.90;;;;;;2067352;28;20851;-79
2023/07/29 02:33:19;;;;;;;;;;;18.70;99.90;;;;;;2075102;28;19913;-78
2023/07/29 02:34:20;;;;;;;;;;;18.70;99.90;;;;;;2074962;28;19923;-79
2023/07/29 02:35:20;;;;;;;;;;;18.70;99.90;;;;;;2064359;28;19984;-79
2023/07/29 02:36:21;;;;;;;;;;;18.70;99.90;;;;;;2066660;28;20480;-78
2023/07/29 02:37:21;;;;;;;;;;;18.70;99.90;;;;;;2066657;28;19968;-79
2023/07/29 02:38:22;;;;;;;;;;;18.70;99.90;;;;;;2074974;28;19952;-79
2023/07/29 02:39:23;;;;;;;;;;;18.70;99.90;;;;;;2077550;28;19935;-78
2023/07/29 02:40:26;;;;;;;;;;;18.70;99.90;;;;;;2074685;28;20425;-78
2023/07/29 02:41:27;;;;;;;;;;;18.60;99.90;;;;;;2066911;28;20019;-77
2023/07/29 02:42:27;;;;;;;;;;;18.70;99.90;;;;;;2074668;28;19921;-77
2023/07/29 02:43:28;;;;;;;;;;;18.70;99.90;;;;;;2066580;28;20304;-77
2023/07/29 02:44:29;;;;;;;;;;;18.60;99.90;;;;;;2068233;28;19963;-77
2023/07/29 02:45:29;;;;;;;;;;;18.70;99.90;;;;;;2071541;28;19917;-72
2023/07/29 02:46:29;;;;;;;;;;;18.70;99.90;;;;;;2066583;28;19917;-78
2023/07/29 02:47:30;;;;;;;;;;;18.70;99.90;;;;;;2074810;28;19924;-67
2023/07/29 02:48:31;;;;;;;;;;;18.60;99.90;;;;;;2076818;28;19913;-71
2023/07/29 02:49:32;;;;;;;;;;;18.60;99.90;;;;;;2066796;28;20120;-77
2023/07/29 02:50:34;;;;;;;;;;;18.60;99.90;;;;;;2074540;28;20384;-77
2023/07/29 02:51:35;;;;;;;;;;;18.70;99.90;;;;;;2074741;28;19917;-78
2023/07/29 02:52:36;;;;;;;;;;;18.60;99.90;;;;;;2074729;28;19916;-77
2023/07/29 02:53:36;;;;;;;;;;;18.70;99.90;;;;;;2074499;28;19920;-79
2023/07/29 02:54:37;;;;;;;;;;;18.70;99.90;;;;;;2076483;28;19913;-78
2023/07/29 02:55:41;;;;;;;;;;;18.70;99.90;;;;;;2063241;28;19918;-78
2023/07/29 02:56:41;;;;;;;;;;;18.60;99.90;;;;;;2066919;28;19938;-78
2023/07/29 02:57:42;;;;;;;;;;;18.70;99.90;;;;;;2071122;28;19975;-79
2023/07/29 02:58:43;;;;;;;;;;;18.70;99.90;;;;;;2066399;28;19996;-78
2023/07/29 02:59:44;;;;;;;;;;;18.70;99.90;;;;;;2064274;28;19955;-78
2023/07/29 03:00:44;;;;;;;;;;;18.70;99.90;;;;;;2074692;28;19917;-78
2023/07/29 03:01:45;;;;;;;;;;;18.70;99.90;;;;;;2076089;28;19920;-78
2023/07/29 03:02:46;;;;;;;;;;;18.70;99.90;;;;;;2066348;28;20004;-78
2023/07/29 03:03:46;;;;;;;;;;;18.70;99.90;;;;;;2065877;28;20392;-78
2023/07/29 03:04:47;;;;;;;;;;;18.70;99.90;;;;;;2074624;28;20324;-78
2023/07/29 03:05:48;;;;;;;;;;;18.70;99.90;;;;;;2076348;28;20371;-77
2023/07/29 03:06:48;;;;;;;;;;;18.70;99.90;;;;;;2075398;28;20550;-78
2023/07/29 03:07:49;;;;;;;;;;;18.70;99.90;;;;;;2079333;28;20817;-76
2023/07/29 03:08:50;;;;;;;;;;;18.70;99.90;;;;;;2077298;28;19917;-78
2023/07/29 03:09:50;;;;;;;;;;;18.70;99.90;;;;;;2072521;28;19917;-78
2023/07/29 03:10:51;;;;;;;;;;;18.80;99.90;;;;;;2066393;28;20367;-79
2023/07/29 03:11:52;;;;;;;;;;;18.80;99.90;;;;;;2062401;28;19910;-79
2023/07/29 03:12:56;;;;;;;;;;;18.80;99.90;;;;;;2074569;28;19913;-79
2023/07/29 03:13:57;;;;;;;;;;;18.80;99.90;;;;;;2076284;28;19964;-79
2023/07/29 03:14:58;;;;;;;;;;;18.90;99.90;;;;;;2071136;28;19929;-80
2023/07/29 03:16:25;;;;;;;;;;;18.90;99.90;;;;;;2066390;28;20565;-79
2023/07/29 03:17:29;;;;;;;;;;;18.90;99.90;;;;;;2072174;28;19917;-79
2023/07/29 03:18:29;;;;;;;;;;;19.00;99.90;;;;;;2077887;28;20006;-76
2023/07/29 03:19:30;;;;;;;;;;;19.00;99.90;;;;;;2077850;28;19928;-76
2023/07/29 03:20:30;;;;;;;;;;;19.00;99.90;;;;;;2074076;28;19928;-78
2023/07/29 03:21:31;;;;;;;;;;;19.00;99.90;;;;;;2074240;28;20276;-78
2023/07/29 03:22:32;;;;;;;;;;;19.00;99.90;;;;;;2066381;28;19921;-77
2023/07/29 03:23:32;;;;;;;;;;;19.10;99.90;;;;;;2076337;28;19924;-78
2023/07/29 03:24:33;;;;;;;;;;;19.10;99.90;;;;;;2075103;28;20631;-78
2023/07/29 03:25:33;;;;;;;;;;;19.10;99.90;;;;;;2074575;28;19945;-81
2023/07/29 03:26:34;;;;;;;;;;;19.10;99.90;;;;;;2074786;28;19913;-77
2023/07/29 03:27:36;;;;;;;;;;;19.10;99.90;;;;;;2077206;28;19945;-78
2023/07/29 03:28:38;;;;;;;;;;;19.20;99.90;;;;;;2069174;28;19928;-78
2023/07/29 03:29:38;;;;;;;;;;;19.20;99.90;;;;;;2069733;28;19917;-79
2023/07/29 03:30:39;;;;;;;;;;;19.20;99.90;;;;;;2074497;28;19917;-80
2023/07/29 03:31:39;;;;;;;;;;;19.20;99.90;;;;;;2068513;28;20048;-79
2023/07/29 03:32:44;;;;;;;;;;;19.30;99.90;;;;;;2074707;28;19944;-80
2023/07/29 03:33:44;;;;;;;;;;;19.30;99.90;;;;;;2074507;28;20055;-79
2023/07/29 03:34:45;;;;;;;;;;;19.30;99.90;;;;;;2070990;28;19917;-80
2023/07/29 03:35:45;;;;;;;;;;;19.30;99.90;;;;;;2076214;28;19917;-79
2023/07/29 03:36:47;;;;;;;;;;;19.30;99.90;;;;;;2075565;28;19921;-79
2023/07/29 03:37:48;;;;;;;;;;;19.30;99.90;;;;;;2075669;28;19960;-79
2023/07/29 03:38:48;;;;;;;;;;;19.30;99.90;;;;;;2075362;28;20646;-78
2023/07/29 03:39:49;;;;;;;;;;;19.40;99.90;;;;;;2074389;28;19964;-77
2023/07/29 03:40:50;;;;;;;;;;;19.40;99.90;;;;;;2070968;28;20385;-76
2023/07/29 03:41:50;;;;;;;;;;;19.40;99.90;;;;;;2068284;28;20368;-77
2023/07/29 03:42:51;;;;;;;;;;;19.40;99.90;;;;;;2067184;28;20132;-77
2023/07/29 03:43:51;;;;;;;;;;;19.40;99.90;;;;;;2076845;28;19952;-78
2023/07/29 03:44:52;;;;;;;;;;;19.40;99.90;;;;;;2080768;28;19921;-79
2023/07/29 03:45:53;;;;;;;;;;;19.50;99.90;;;;;;2081122;28;19920;-79
2023/07/29 03:46:53;;;;;;;;;;;19.50;99.90;;;;;;2068887;28;19918;-80
2023/07/29 03:47:54;;;;;;;;;;;19.50;99.90;;;;;;2069797;28;19945;-79
2023/07/29 03:48:54;;;;;;;;;;;19.50;99.90;;;;;;2080840;28;20350;-79
2023/07/29 03:49:55;;;;;;;;;;;19.50;99.90;;;;;;2072365;28;19913;-80
2023/07/29 03:50:57;;;;;;;;;;;19.50;99.90;;;;;;2076231;28;19917;-79
2023/07/29 03:51:57;;;;;;;;;;;19.50;99.90;;;;;;2077766;28;20312;-80
2023/07/29 03:52:57;;;;;;;;;;;19.50;99.90;;;;;;2081142;28;19924;-80
2023/07/29 03:53:58;;;;;;;;;;;19.60;99.90;;;;;;2074358;28;19917;-80
2023/07/29 03:54:59;;;;;;;;;;;19.50;99.90;;;;;;2063852;28;20010;-77
2023/07/29 03:55:59;;;;;;;;;;;19.60;99.90;;;;;;2066206;28;20091;-80
2023/07/29 03:57:00;;;;;;;;;;;19.60;99.90;;;;;;2074396;28;19917;-80
2023/07/29 03:58:00;;;;;;;;;;;19.60;99.90;;;;;;2071138;28;20158;-80
2023/07/29 03:59:02;;;;;;;;;;;19.60;99.90;;;;;;2072353;28;19913;-80
2023/07/29 04:00:03;;;;;;;;;;;19.60;99.90;;;;;;2075626;28;19960;-80
2023/07/29 04:01:05;;;;;;;;;;;19.60;99.90;;;;;;2074453;28;19917;-80
2023/07/29 04:02:05;;;;;;;;;;;19.60;99.90;;;;;;2075146;28;19921;-79
2023/07/29 04:03:06;;;;;;;;;;;19.60;99.90;;;;;;2074449;28;19928;-79
2023/07/29 04:04:07;;;;;;;;;;;19.60;99.90;;;;;;2080852;28;19917;-80
2023/07/29 04:05:08;;;;;;;;;;;19.60;99.90;;;;;;2073132;28;20016;-80
2023/07/29 04:06:09;;;;;;;;;;;19.60;99.90;;;;;;2075325;28;19967;-80
2023/07/29 04:07:09;;;;;;;;;;;19.70;99.90;;;;;;2072064;28;20015;-80
2023/07/29 04:08:10;;;;;;;;;;;19.70;99.90;;;;;;2067635;28;19917;-79
2023/07/29 04:09:10;;;;;;;;;;;19.70;99.90;;;;;;2069401;28;20000;-80
2023/07/29 04:10:11;;;;;;;;;;;19.70;99.90;;;;;;2076457;28;20227;-80
2023/07/29 04:11:13;;;;;;;;;;;19.70;99.90;;;;;;2073263;28;20561;-78
2023/07/29 04:12:13;;;;;;;;;;;19.70;99.90;;;;;;2073062;28;19971;-78
2023/07/29 04:13:14;;;;;;;;;;;19.80;99.90;;;;;;2067716;28;19913;-77
2023/07/29 04:14:14;;;;;;;;;;;19.80;99.90;;;;;;2069220;28;19948;-79
2023/07/29 04:15:15;;;;;;;;;;;19.80;99.90;;;;;;2075822;28;19953;-79
2023/07/29 04:16:16;;;;;;;;;;;19.80;99.90;;;;;;2067562;28;19996;-78
2023/07/29 04:17:17;;;;;;;;;;;19.80;99.90;;;;;;2069880;28;20396;-79
2023/07/29 04:18:17;;;;;;;;;;;19.90;99.90;;;;;;2067311;28;19918;-78
2023/07/29 04:19:19;;;;;;;;;;;19.80;99.90;;;;;;2079711;28;20019;-79
2023/07/29 04:20:20;;;;;;;;;;;19.90;99.90;;;;;;2070335;28;20044;-79
2023/07/29 04:21:20;;;;;;;;;;;19.90;99.90;;;;;;2070566;28;19913;-78
2023/07/29 04:22:21;;;;;;;;;;;19.90;99.90;;;;;;2076882;28;19924;-78
2023/07/29 04:23:21;;;;;;;;;;;19.90;99.90;;;;;;2084161;28;19919;-78
2023/07/29 04:24:23;;;;;;;;;;;19.90;99.90;;;;;;2070633;28;19997;-78
2023/07/29 04:25:23;;;;;;;;;;;19.90;99.90;;;;;;2067808;28;20561;-78
2023/07/29 04:26:24;;;;;;;;;;;20.00;99.90;;;;;;2077739;28;19913;-78
2023/07/29 04:27:24;;;;;;;;;;;20.00;99.90;;;;;;2087411;28;19924;-78
2023/07/29 04:28:25;;;;;;;;;;;20.00;99.90;;;;;;2087298;28;20481;-78
2023/07/29 04:29:25;;;;;;;;;;;20.00;99.90;;;;;;2076325;28;19913;-78
2023/07/29 04:30:26;;;;;;;;;;;20.00;99.90;;;;;;2076232;28;20000;-78
2023/07/29 04:31:27;;;;;;;;;;;20.00;99.90;;;;;;2087230;28;19919;-78
2023/07/29 04:32:27;;;;;;;;;;;20.00;99.90;;;;;;2082038;28;19980;-79
2023/07/29 04:33:29;;;;;;;;;;;20.00;99.90;;;;;;2075770;28;19920;-77
2023/07/29 04:34:29;;;;;;;;;;;20.10;99.90;;;;;;2075630;28;19917;-78
2023/07/29 04:35:30;;;;;;;;;;;20.00;99.90;;;;;;2075726;28;19971;-78
2023/07/29 04:36:30;;;;;;;;;;;20.00;99.90;;;;;;2069288;28;20383;-78
2023/07/29 04:37:31;;;;;;;;;;;20.00;99.90;;;;;;2075505;28;20004;-78
2023/07/29 04:38:35;;;;;;;;;;;20.10;99.90;;;;;;2075494;28;19948;-78
2023/07/29 04:39:36;;;;;;;;;;;20.00;99.90;;;;;;2067654;28;19924;-78
2023/07/29 04:40:36;;;;;;;;;;;20.10;99.90;;;;;;2077545;28;20432;-79
2023/07/29 04:41:37;;;;;;;;;;;20.10;99.90;;;;;;2075476;28;20438;-79
2023/07/29 04:42:38;;;;;;;;;;;20.10;99.90;;;;;;2075598;28;19913;-79
2023/07/29 04:43:38;;;;;;;;;;;20.10;99.90;;;;;;2075238;28;20015;-78
2023/07/29 04:44:39;;;;;;;;;;;20.10;99.90;;;;;;2077389;28;19971;-80
2023/07/29 04:45:42;;;;;;;;;;;20.10;99.90;;;;;;2075499;28;20010;-79
2023/07/29 04:46:43;;;;;;;;;;;20.10;99.90;;;;;;2079324;28;19917;-80
2023/07/29 04:47:43;;;;;;;;;;;20.20;99.90;;;;;;2078758;28;20476;-80
2023/07/29 04:48:44;;;;;;;;;;;20.10;99.90;;;;;;2078708;28;20189;-78
2023/07/29 04:49:44;;;;;;;;;;;20.10;99.90;;;;;;2082869;28;20192;-79
2023/07/29 04:50:45;;;;;;;;;;;20.20;99.90;;;;;;2077241;28;20336;-78
2023/07/29 04:51:45;;;;;;;;;;;20.20;99.90;;;;;;2067340;28;19960;-79
2023/07/29 04:52:46;;;;;;;;;;;20.20;99.90;;;;;;2059071;28;20036;-78
2023/07/29 04:53:46;;;;;;;;;;;20.20;99.90;;;;;;2069085;28;20019;-81
2023/07/29 04:54:47;;;;;;;;;;;20.30;99.90;;;;;;2063237;28;20302;-81
2023/07/29 04:55:48;;;;;;;;;;;20.30;99.90;;;;;;2067280;28;20518;-80
2023/07/29 04:56:48;;;;;;;;;;;20.40;99.90;;;;;;2078985;28;19921;-80
2023/07/29 04:57:51;;;;;;;;;;;20.40;99.90;;;;;;2085023;28;20422;-79
2023/07/29 04:58:52;;;;;;;;;;;20.40;99.90;;;;;;2067362;28;19973;-79
2023/07/29 04:59:53;;;;;;;;;;;20.30;99.90;;;;;;2073594;28;19917;-80
2023/07/29 05:00:53;;;;;;;;;;;20.40;99.90;;;;;;2073068;28;19953;-79
2023/07/29 05:01:54;;;;;;;;;;;20.40;99.90;;;;;;2065046;28;20177;-78
2023/07/29 05:02:55;;;;;;;;;;;20.40;99.90;;;;;;2068893;28;19921;-78
2023/07/29 05:03:55;;;;;;;;;;;20.40;99.90;;;;;;2064616;28;19991;-78
2023/07/29 05:04:56;;;;;;;;;;;20.40;99.90;;;;;;2074578;28;19929;-78
2023/07/29 05:05:57;;;;;;;;;;;20.40;99.90;;;;;;2087263;28;19952;-78
2023/07/29 05:06:59;;;;;;;;;;;20.40;99.90;;;;;;2078442;28;19918;-78
2023/07/29 05:07:59;;;;;;;;;;;20.40;99.90;;;;;;2075148;28;19918;-78
2023/07/29 05:09:12;;;;;;;;;;;20.50;99.90;;;;;;2080141;28;20411;-80
2023/07/29 05:10:12;;;;;;;;;;;20.40;99.90;;;;;;2074389;28;20268;-77
2023/07/29 05:11:13;;;;;;;;;;;20.50;99.90;;;;;;2073801;28;19918;-77
2023/07/29 05:12:14;;;;;;;;;;;20.40;99.90;;;;;;2083289;28;19942;-80
2023/07/29 05:13:15;;;;;;;;;;;20.40;99.90;;;;;;2072550;28;20532;-79
2023/07/29 05:14:16;;;;;;;;;;;20.50;99.90;;;;;;2079856;28;19928;-80
2023/07/29 05:15:18;;;;;;;;;;;20.50;99.90;;;;;;2089235;28;20302;-80
2023/07/29 05:16:19;;;;;;;;;;;20.50;99.90;;;;;;2074084;28;20403;-79
2023/07/29 05:17:19;;;;;;;;;;;20.50;99.90;;;;;;2075446;28;19920;-78
2023/07/29 05:18:20;;;;;;;;;;;20.60;99.90;;;;;;2086894;28;19917;-79
2023/07/29 05:19:20;;;;;;;;;;;20.60;99.90;;;;;;2078639;28;19921;-79
2023/07/29 05:20:21;;;;;;;;;;;20.60;99.90;;;;;;2069037;28;20115;-80
2023/07/29 05:21:22;;;;;;;;;;;20.70;99.90;;;;;;2066495;28;20240;-80
2023/07/29 05:22:22;;;;;;;;;;;20.70;99.90;;;;;;2066537;28;19919;-79
2023/07/29 05:23:23;;;;;;;;;;;20.70;99.90;;;;;;2067390;28;19914;-81
2023/07/29 05:24:24;;;;;;;;;;;20.80;99.90;;;;;;2068909;28;20297;-81
2023/07/29 05:25:24;;;;;;;;;;;20.90;99.90;;;;;;2067124;28;19918;-80
2023/07/29 05:26:25;;;;;;;;;;;20.90;99.90;;;;;;2075097;28;20365;-81
2023/07/29 05:27:25;;;;;;;;;;;21.00;99.90;;;;;;2067032;28;20340;-80
2023/07/29 05:28:26;;;;;;;;;;;21.00;99.90;;;;;;2077141;28;19971;-80
2023/07/29 05:29:26;;;;;;;;;;;21.10;99.90;;;;;;2075347;28;19960;-82
2023/07/29 05:30:30;;;;;;;;;;;21.10;99.90;;;;;;2066924;28;19914;-79
2023/07/29 05:31:31;;;;;;;;;;;21.20;99.90;;;;;;2075451;28;20397;-80
2023/07/29 05:32:31;;;;;;;;;;;21.20;99.90;;;;;;2075694;28;19952;-79
2023/07/29 05:33:32;;;;;;;;;;;21.30;99.90;;;;;;2076932;28;19917;-80
2023/07/29 05:34:33;;;;;;;;;;;21.30;99.90;;;;;;2066906;28;20044;-79
2023/07/29 05:35:33;;;;;;;;;;;21.30;99.90;;;;;;2075034;28;19920;-81
2023/07/29 05:36:34;;;;;;;;;;;21.40;99.90;;;;;;2078425;28;19913;-80
2023/07/29 05:37:34;;;;;;;;;;;21.50;99.90;;;;;;2080822;28;19920;-80
2023/07/29 05:38:35;;;;;;;;;;;21.70;99.90;;;;;;2075175;28;19920;-79
2023/07/29 05:39:35;;;;;;;;;;;22.00;99.90;;;;;;2074865;28;19993;-80
2023/07/29 05:40:36;;;;;;;;;;;22.50;99.90;;;;;;2074926;28;19921;-79
2023/07/29 05:41:37;;;;;;;;;;;23.00;99.90;;;;;;2076304;28;19924;-79
2023/07/29 05:42:37;;;;;;;;;;;23.40;99.90;;;;;;2067131;28;19917;-79
2023/07/29 05:43:38;;;;;;;;;;;23.80;99.90;;;;;;2069999;28;19917;-80
2023/07/29 05:44:38;;;;;;;;;;;23.90;99.90;;;;;;2067012;28;19971;-81
2023/07/29 05:45:40;;;;;;;;;;;24.00;99.90;;;;;;2069081;28;19918;-78
2023/07/29 05:46:41;;;;;;;;;;;24.10;99.90;;;;;;2066720;28;19997;-78
2023/07/29 05:47:41;;;;;;;;;;;24.20;99.90;;;;;;2067000;28;19961;-78
2023/07/29 05:48:42;;;;;;;;;;;24.30;99.90;;;;;;2070653;28;19917;-78
2023/07/29 05:49:42;;;;;;;;;;;24.30;99.90;;;;;;2076116;28;19929;-80
2023/07/29 05:50:43;;;;;;;;;;;24.20;99.90;;;;;;2076894;28;20359;-80
2023/07/29 05:51:44;;;;;;;;;;;24.00;99.90;;;;;;2074933;28;19924;-78
2023/07/29 05:52:44;;;;;;;;;;;23.80;99.90;;;;;;2067008;28;20754;-81
2023/07/29 05:53:45;;;;;;;;;;;23.80;99.90;;;;;;2067009;28;19913;-82
2023/07/29 05:54:46;;;;;;;;;;;23.80;99.90;;;;;;2067650;28;20356;-81
2023/07/29 05:55:46;;;;;;;;;;;24.00;99.90;;;;;;2080678;28;19971;-80
2023/07/29 05:56:47;;;;;;;;;;;24.10;99.90;;;;;;2079820;28;20408;-80